Time;durP1;ratioP1;P1;durP2;ratioP2;P2;SDS_P1;SDS_P2;PMS_P1;PMS_P2;Temp;Humidity;BMP_temperature;BMP_pressure;BME280_temperature;BME280_humidity;BME280_pressure;Samples;Min_cycle;Max_cycle;Signal;HPM_P1;HPM_P2
2022/07/27 00:01:11;;;;;;;8.48;2.13;;;;;;;16.40;68.62;98985.63;5046391;28;20321;-79
2022/07/27 00:03:36;;;;;;;4.53;2.35;;;;;;;15.79;70.06;99003.31;5066224;28;20111;-79
2022/07/27 00:06:02;;;;;;;5.32;1.88;;;;;;;16.33;68.06;99000.50;5061968;28;20119;-79
2022/07/27 00:08:27;;;;;;;5.28;2.13;;;;;;;17.39;66.69;99000.25;5031339;28;20384;-80
2022/07/27 00:10:52;;;;;;;9.80;2.78;;;;;;;16.35;66.52;99001.03;5063203;28;20029;-79
2022/07/27 00:13:18;;;;;;;3.25;1.95;;;;;;;16.41;66.75;99011.50;5062514;28;20032;-80
2022/07/27 00:15:44;;;;;;;6.57;1.88;;;;;;;17.21;66.85;99022.63;5045750;28;20024;-80
2022/07/27 00:18:09;;;;;;;7.63;2.55;;;;;;;15.95;68.12;99014.78;5056466;28;20402;-79
2022/07/27 00:20:35;;;;;;;6.03;2.00;;;;;;;16.30;66.67;99023.44;5033048;28;20488;-79
2022/07/27 00:23:01;;;;;;;5.72;1.70;;;;;;;16.66;66.61;98993.53;5059767;28;20033;-79
2022/07/27 00:25:27;;;;;;;4.35;1.58;;;;;;;16.92;65.04;99008.34;5065867;28;20634;-79
2022/07/27 00:27:53;;;;;;;7.43;2.17;;;;;;;16.74;64.34;99009.88;5051744;28;20032;-80
2022/07/27 00:30:18;;;;;;;5.55;2.10;;;;;;;16.87;66.44;99011.91;5080249;28;20037;-79
2022/07/27 00:32:44;;;;;;;4.55;1.88;;;;;;;16.26;66.49;99008.91;5063133;28;20036;-79
2022/07/27 00:35:10;;;;;;;8.02;2.20;;;;;;;16.33;65.88;99004.03;5063730;28;20676;-79
2022/07/27 00:37:36;;;;;;;4.00;2.10;;;;;;;16.54;66.90;99020.84;5064005;28;20444;-79
2022/07/27 00:40:02;;;;;;;7.03;2.67;;;;;;;15.72;66.69;99000.13;5065138;28;20120;-79
2022/07/27 00:42:28;;;;;;;8.52;2.17;;;;;;;15.45;67.96;99000.53;5045057;28;20039;-79
2022/07/27 00:44:54;;;;;;;7.70;2.45;;;;;;;16.16;67.32;99010.88;5064475;28;20028;-79
2022/07/27 00:47:20;;;;;;;7.10;2.40;;;;;;;16.58;67.13;98997.63;5065737;28;20029;-79
2022/07/27 00:49:46;;;;;;;6.38;1.67;;;;;;;16.53;65.98;98995.00;5044390;28;20055;-79
2022/07/27 00:52:12;;;;;;;6.05;1.95;;;;;;;15.80;66.85;99015.69;5061068;28;20074;-79
2022/07/27 00:54:39;;;;;;;7.20;2.00;;;;;;;15.82;67.36;99008.13;5060203;28;20428;-79
2022/07/27 00:57:05;;;;;;;9.48;2.00;;;;;;;15.97;66.18;99015.31;5045046;28;20040;-79
2022/07/27 00:59:31;;;;;;;8.73;2.20;;;;;;;16.15;66.63;99014.66;5032436;28;20086;-79
2022/07/27 01:01:56;;;;;;;7.88;2.40;;;;;;;16.27;66.46;99012.44;5063170;28;20021;-79
2022/07/27 01:04:22;;;;;;;11.55;2.78;;;;;;;15.68;67.10;99015.22;5064315;28;20432;-79
2022/07/27 01:06:47;;;;;;;13.38;2.20;;;;;;;15.69;66.98;99020.31;5061831;28;20028;-79
2022/07/27 01:11:57;;;;;;;5.63;2.30;;;;;;;15.87;65.94;99007.31;5058314;28;20044;-79
2022/07/27 01:14:23;;;;;;;8.68;1.88;;;;;;;15.72;67.03;99005.50;5062833;28;20025;-79
2022/07/27 01:16:50;;;;;;;10.20;2.50;;;;;;;15.70;66.89;99023.81;5060156;28;20059;-79
2022/07/27 01:19:16;;;;;;;7.72;2.15;;;;;;;16.04;66.30;99022.00;5046916;28;20113;-80
2022/07/27 01:21:42;;;;;;;5.55;2.00;;;;;;;16.93;65.03;99012.66;5063308;28;20026;-79
2022/07/27 01:24:08;;;;;;;11.73;2.53;;;;;;;16.08;66.70;99033.81;5063946;28;20551;-79
2022/07/27 01:26:35;;;;;;;7.22;2.08;;;;;;;16.64;64.66;99022.66;5063766;28;20028;-79
2022/07/27 01:29:00;;;;;;;7.18;1.88;;;;;;;16.36;65.81;99026.88;5060812;28;20052;-79
2022/07/27 01:31:29;;;;;;;8.63;2.75;;;;;;;16.35;64.70;99018.00;5064704;28;20041;-80
2022/07/27 01:33:55;;;;;;;6.97;1.70;;;;;;;16.40;64.76;99028.72;5060681;28;20032;-79
2022/07/27 01:36:20;;;;;;;6.65;2.17;;;;;;;16.21;65.56;99022.41;5058824;28;20365;-79
2022/07/27 01:38:46;;;;;;;9.48;2.70;;;;;;;16.25;65.29;99034.22;5058808;28;20123;-80
2022/07/27 01:41:12;;;;;;;5.68;1.65;;;;;;;16.58;66.04;99029.19;5062693;28;20497;-79
2022/07/27 01:43:38;;;;;;;10.77;2.45;;;;;;;16.75;64.65;99033.06;5034553;28;1194124;-79
2022/07/27 01:46:03;;;;;;;10.88;2.13;;;;;;;16.04;66.17;99022.00;5064185;28;20408;-79
2022/07/27 01:48:29;;;;;;;9.65;2.60;;;;;;;15.62;66.92;99037.84;5045163;28;20028;-79
2022/07/27 01:50:54;;;;;;;9.20;1.92;;;;;;;15.88;66.22;99020.47;5063130;28;20031;-79
2022/07/27 01:53:21;;;;;;;6.40;2.85;;;;;;;15.88;66.31;99020.47;5063935;28;20036;-79
2022/07/27 01:55:47;;;;;;;5.00;1.67;;;;;;;15.60;67.31;99040.00;5062289;28;20024;-79
2022/07/27 01:58:12;;;;;;;7.40;2.10;;;;;;;16.10;66.84;99034.34;5060524;28;20440;-79
2022/07/27 02:00:39;;;;;;;11.55;2.30;;;;;;;15.92;67.13;99028.81;5046620;28;20025;-79
2022/07/27 02:03:07;;;;;;;6.82;2.20;;;;;;;15.81;66.84;99020.00;5049774;28;20150;-79
2022/07/27 02:05:32;;;;;;;6.40;2.08;;;;;;;15.69;66.77;98995.28;5060825;28;20036;-79
2022/07/27 02:07:57;;;;;;;7.50;2.38;;;;;;;15.73;67.86;99016.00;5060343;28;20043;-79
2022/07/27 02:10:23;;;;;;;7.93;2.38;;;;;;;16.19;66.13;99023.78;5058581;28;20032;-79
2022/07/27 02:12:49;;;;;;;6.88;2.45;;;;;;;16.53;64.64;99018.44;5057347;28;20099;-79
2022/07/27 02:15:19;;;;;;;6.60;1.63;;;;;;;16.38;65.69;99017.44;5061250;28;20044;-79
2022/07/27 02:17:46;;;;;;;8.57;2.30;;;;;;;16.93;64.02;99021.53;5061020;28;20435;-79
2022/07/27 02:20:13;;;;;;;7.75;2.10;;;;;;;16.95;63.69;99019.38;5049569;28;20036;-79
2022/07/27 02:22:39;;;;;;;6.28;1.63;;;;;;;17.57;62.27;99009.50;5050101;28;20028;-80
2022/07/27 02:25:05;;;;;;;6.18;1.88;;;;;;;17.62;62.32;99015.66;5027844;28;20043;-79
2022/07/27 02:27:31;;;;;;;5.55;1.92;;;;;;;17.48;62.46;99012.03;5062415;28;20115;-79
2022/07/27 02:29:56;;;;;;;8.48;1.98;;;;;;;17.59;62.53;99021.63;5025177;28;20052;-79
2022/07/27 02:32:22;;;;;;;7.43;2.03;;;;;;;17.85;61.25;99004.00;5077906;28;20048;-79
2022/07/27 02:34:48;;;;;;;8.05;2.45;;;;;;;18.07;60.89;99024.22;5048058;28;20060;-79
2022/07/27 02:37:14;;;;;;;5.97;1.80;;;;;;;18.06;61.05;99022.63;5074902;28;20531;-79
2022/07/27 02:39:39;;;;;;;3.25;1.35;;;;;;;17.58;62.28;99019.22;5050520;28;20084;-80
2022/07/27 02:42:05;;;;;;;4.55;1.85;;;;;;;17.65;61.67;99006.16;5029828;28;20032;-79
2022/07/27 02:44:30;;;;;;;2.30;1.40;;;;;;;17.55;62.10;99014.41;5061520;28;20016;-80
2022/07/27 02:46:56;;;;;;;11.27;2.30;;;;;;;17.10;63.28;99027.28;5044819;28;20036;-79
2022/07/27 02:49:21;;;;;;;8.93;2.65;;;;;;;16.57;64.50;99006.81;5063125;28;20028;-79
2022/07/27 02:51:51;;;;;;;6.57;2.13;;;;;;;16.83;64.32;99012.75;5061952;28;20404;-79
2022/07/27 02:54:18;;;;;;;6.53;2.20;;;;;;;16.22;65.27;99021.34;5063780;28;20020;-80
2022/07/27 02:56:43;;;;;;;7.10;1.95;;;;;;;16.71;64.48;99007.75;5057119;28;20484;-80
2022/07/27 02:59:09;;;;;;;7.50;2.25;;;;;;;16.91;63.70;99017.53;5045683;28;20089;-79
2022/07/27 03:01:34;;;;;;;9.82;2.35;;;;;;;16.16;65.44;99022.44;5047145;28;20012;-79
2022/07/27 03:03:59;;;;;;;7.50;2.00;;;;;;;16.22;65.87;99021.34;5042018;28;20400;-79
2022/07/27 03:06:25;;;;;;;10.32;2.28;;;;;;;16.42;64.89;99004.22;5064328;28;20033;-79
2022/07/27 03:08:50;;;;;;;4.88;2.20;;;;;;;17.28;62.80;99014.97;5044210;28;20032;-79
2022/07/27 03:11:16;;;;;;;5.40;2.00;;;;;;;17.44;61.77;98994.81;5059271;28;20529;-79
2022/07/27 03:13:41;;;;;;;3.65;1.77;;;;;;;17.46;61.80;99005.31;5044040;28;20036;-80
2022/07/27 03:16:07;;;;;;;4.53;1.73;;;;;;;17.32;62.22;99007.88;5045988;28;20033;-79
2022/07/27 03:18:32;;;;;;;6.15;1.90;;;;;;;17.65;61.91;99025.06;5059365;28;20070;-79
2022/07/27 03:20:57;;;;;;;8.10;1.88;;;;;;;17.77;61.27;99020.06;5056773;28;20028;-80
2022/07/27 03:23:23;;;;;;;4.32;2.03;;;;;;;17.72;61.70;99029.03;5045133;28;20101;-80
2022/07/27 03:25:48;;;;;;;5.63;1.90;;;;;;;17.56;61.13;99000.59;5061548;28;20550;-79
2022/07/27 03:28:14;;;;;;;3.35;1.65;;;;;;;17.74;61.01;99026.84;5059185;28;20052;-79
2022/07/27 03:30:39;;;;;;;5.38;2.08;;;;;;;17.25;62.38;99037.13;5061092;28;20090;-79
2022/07/27 03:33:05;;;;;;;8.20;2.10;;;;;;;16.96;62.98;99015.59;5059919;28;20041;-79
2022/07/27 03:35:31;;;;;;;3.20;1.63;;;;;;;17.09;62.76;99036.50;5059073;28;20115;-80
2022/07/27 03:37:56;;;;;;;7.45;1.83;;;;;;;17.16;62.67;99019.97;5058807;28;20056;-79
2022/07/27 03:40:21;;;;;;;6.43;2.00;;;;;;;16.96;63.05;99025.56;5060811;28;20047;-79
2022/07/27 03:42:47;;;;;;;6.78;1.77;;;;;;;17.43;62.40;99040.97;5062178;28;20655;-80
2022/07/27 03:45:12;;;;;;;5.50;2.17;;;;;;;17.48;61.78;99027.41;5074234;28;20444;-80
2022/07/27 03:47:38;;;;;;;6.18;1.70;;;;;;;17.56;61.67;99034.91;5060558;28;20527;-79
2022/07/27 03:50:04;;;;;;;7.30;2.00;;;;;;;17.59;61.06;99040.53;5043900;28;20032;-79
2022/07/27 03:52:29;;;;;;;4.75;1.70;;;;;;;17.59;61.31;99035.13;5058011;28;20045;-80
2022/07/27 03:54:56;;;;;;;7.47;1.98;;;;;;;17.70;60.90;99035.78;5055970;28;20036;-79
2022/07/27 03:57:22;;;;;;;2.88;1.52;;;;;;;17.66;61.29;99038.28;5052201;28;20089;-80
2022/07/27 03:59:47;;;;;;;8.98;1.88;;;;;;;17.54;61.35;99021.69;5051240;28;20032;-80
2022/07/27 04:02:12;;;;;;;4.68;1.80;;;;;;;17.67;61.11;99029.06;5061794;28;20036;-79
2022/07/27 04:04:38;;;;;;;4.70;1.75;;;;;;;17.61;61.45;99035.63;5056271;28;20024;-80
2022/07/27 04:07:03;;;;;;;5.53;1.88;;;;;;;17.59;61.22;99035.13;5044336;28;20381;-79
2022/07/27 04:09:29;;;;;;;8.57;2.03;;;;;;;17.51;62.31;99034.97;5062204;28;20069;-80
2022/07/27 04:11:54;;;;;;;6.78;1.65;;;;;;;17.55;61.18;99017.91;5060540;28;20051;-80
2022/07/27 04:14:19;;;;;;;4.85;1.90;;;;;;;17.57;62.21;99031.09;5060188;28;20047;-79
2022/07/27 04:16:46;;;;;;;5.63;1.77;;;;;;;17.65;61.79;99036.66;5056105;28;20032;-79
2022/07/27 04:19:11;;;;;;;5.57;1.90;;;;;;;17.22;62.50;99010.72;5071254;28;20469;-80
2022/07/27 04:21:37;;;;;;;7.65;2.03;;;;;;;16.68;64.29;99029.09;5063983;28;20032;-79
2022/07/27 04:24:03;;;;;;;8.13;2.90;;;;;;;16.92;63.82;99024.53;5061672;28;20115;-79
2022/07/27 04:26:28;;;;;;;5.30;2.55;;;;;;;16.70;63.86;99008.84;5062585;28;20034;-79
2022/07/27 04:28:54;;;;;;;7.93;1.90;;;;;;;17.07;63.81;99032.47;5060276;28;20768;-79
2022/07/27 04:31:20;;;;;;;4.82;1.98;;;;;;;16.86;64.30;99023.00;5059635;28;20025;-79
2022/07/27 04:33:45;;;;;;;3.42;1.80;;;;;;;16.76;64.08;99015.78;5029763;28;20127;-79
2022/07/27 04:36:11;;;;;;;5.72;2.60;;;;;;;16.14;65.91;99031.91;5064932;28;20587;-79
2022/07/27 04:38:36;;;;;;;8.23;1.90;;;;;;;16.02;66.82;99048.41;5048119;28;20433;-79
2022/07/27 04:41:02;;;;;;;7.05;1.88;;;;;;;16.14;65.85;99031.91;5059149;28;20551;-80
2022/07/27 04:43:27;;;;;;;4.07;1.83;;;;;;;16.40;65.54;99033.34;5062392;28;20039;-79
2022/07/27 04:45:53;;;;;;;8.10;2.47;;;;;;;16.54;64.71;99041.59;5066464;28;20488;-80
2022/07/27 04:48:18;;;;;;;7.03;2.33;;;;;;;16.89;64.33;99041.28;5045640;28;20116;-79
2022/07/27 04:50:46;;;;;;;7.55;2.30;;;;;;;16.71;64.43;99050.09;5060265;28;20032;-79
2022/07/27 04:53:12;;;;;;;6.05;1.95;;;;;;;16.83;64.24;99050.50;5062544;28;20021;-80
2022/07/27 04:55:41;;;;;;;6.53;1.83;;;;;;;17.15;63.00;99035.34;5045968;28;20511;-79
2022/07/27 04:58:06;;;;;;;8.55;2.00;;;;;;;17.31;62.91;99038.69;5029791;28;20391;-79
2022/07/27 05:00:32;;;;;;;4.90;1.77;;;;;;;17.08;63.21;99050.28;5046099;28;20071;-79
2022/07/27 05:02:57;;;;;;;8.10;1.85;;;;;;;17.02;63.78;99062.19;5065586;28;20029;-79
2022/07/27 05:05:23;;;;;;;2.72;1.88;;;;;;;17.31;62.88;99049.47;5063967;28;20032;-79
2022/07/27 05:07:48;;;;;;;3.70;1.65;;;;;;;16.55;65.55;99078.25;5061062;28;20445;-79
2022/07/27 05:10:14;;;;;;;5.30;1.77;;;;;;;16.56;65.29;99066.34;5062579;28;20036;-79
2022/07/27 05:12:39;;;;;;;6.63;2.35;;;;;;;16.51;65.33;99061.03;5065019;28;20220;-79
2022/07/27 05:15:05;;;;;;;5.75;1.80;;;;;;;17.32;63.04;99071.88;5047064;28;20020;-79
2022/07/27 05:17:30;;;;;;;10.40;2.65;;;;;;;17.06;63.69;99068.59;5057495;28;20028;-79
2022/07/27 05:19:56;;;;;;;6.00;1.88;;;;;;;16.63;64.44;99077.63;5062677;28;20032;-79
2022/07/27 05:22:21;;;;;;;5.85;1.52;;;;;;;16.68;64.55;99080.28;5064335;28;20086;-79
2022/07/27 05:24:46;;;;;;;6.45;2.40;;;;;;;17.43;62.61;99089.56;5043685;28;20500;-80
2022/07/27 05:27:12;;;;;;;5.20;2.08;;;;;;;17.47;62.28;99069.81;5067026;28;20500;-79
2022/07/27 05:29:38;;;;;;;6.43;2.22;;;;;;;17.64;62.23;99102.56;5061463;28;20040;-79
2022/07/27 05:32:04;;;;;;;5.35;1.98;;;;;;;17.56;61.93;99103.19;5065760;28;20136;-79
2022/07/27 05:34:29;;;;;;;3.65;1.60;;;;;;;17.47;62.53;99104.91;5062706;28;20111;-79
2022/07/27 05:36:55;;;;;;;4.10;2.05;;;;;;;16.71;64.40;99093.22;5042194;28;20047;-79
2022/07/27 05:39:21;;;;;;;10.57;2.35;;;;;;;16.48;65.64;99098.19;5061760;28;20481;-79
2022/07/27 05:41:47;;;;;;;11.18;2.50;;;;;;;15.97;67.26;99109.53;5063617;28;20020;-79
2022/07/27 05:44:12;;;;;;;7.00;2.08;;;;;;;16.07;67.58;99101.41;5061250;28;20024;-79
2022/07/27 05:46:38;;;;;;;7.65;2.00;;;;;;;16.82;65.38;99117.09;5065112;28;20043;-79
2022/07/27 05:49:03;;;;;;;7.30;2.30;;;;;;;14.96;70.39;99107.13;5063885;28;20032;-79
2022/07/27 05:51:30;;;;;;;9.07;1.63;;;;;;;16.00;68.29;99104.41;5047735;28;20115;-79
2022/07/27 05:53:56;;;;;;;6.95;2.67;;;;;;;16.71;65.44;99120.94;5063323;28;20032;-80
2022/07/27 05:56:22;;;;;;;10.25;2.30;;;;;;;16.17;66.36;99131.78;5079218;28;20094;-79
2022/07/27 05:58:48;;;;;;;4.00;2.05;;;;;;;15.98;68.07;99130.00;5064636;28;20033;-79
2022/07/27 06:01:13;;;;;;;6.03;2.28;;;;;;;16.87;64.27;99121.63;5064844;28;20028;-79
2022/07/27 06:03:39;;;;;;;7.32;2.22;;;;;;;16.10;65.68;99130.47;5062686;28;20039;-79
2022/07/27 06:08:53;;;;;;;4.97;1.90;;;;;;;15.67;67.59;99127.44;5074509;28;20618;-79
2022/07/27 06:11:18;;;;;;;6.75;2.13;;;;;;;16.38;66.21;99116.34;5056616;28;20055;-78
2022/07/27 06:13:43;;;;;;;8.13;2.05;;;;;;;16.56;64.69;99142.63;5061077;28;20031;-78
2022/07/27 06:16:09;;;;;;;10.98;2.22;;;;;;;15.35;67.46;99144.97;5043550;28;20062;-77
2022/07/27 06:18:34;;;;;;;6.20;1.88;;;;;;;15.40;68.64;99148.47;5058870;28;20028;-78
2022/07/27 06:21:01;;;;;;;4.30;1.50;;;;;;;15.30;67.85;99143.09;5048233;28;20052;-78
2022/07/27 06:23:27;;;;;;;12.32;4.03;;;;;;;16.13;65.48;99140.69;5047669;28;20034;-78
2022/07/27 06:25:53;;;;;;;8.00;2.30;;;;;;;16.15;66.04;99147.44;5061413;28;20032;-80
2022/07/27 06:28:18;;;;;;;3.75;1.73;;;;;;;14.84;68.96;99139.66;5060439;28;20101;-79
2022/07/27 06:30:45;;;;;;;6.20;1.83;;;;;;;15.66;67.90;99138.50;5059344;28;20056;-79
2022/07/27 06:33:11;;;;;;;10.88;2.70;;;;;;;14.94;67.96;99133.44;5063124;28;20044;-79
2022/07/27 06:35:37;;;;;;;9.38;2.10;;;;;;;15.34;68.54;99146.84;5061678;28;20032;-79
2022/07/27 06:38:02;;;;;;;3.45;1.27;;;;;;;15.95;67.02;99144.81;5062905;28;20037;-80
2022/07/27 06:40:28;;;;;;;3.65;1.38;;;;;;;16.05;66.94;99135.91;5055967;28;20680;-76
2022/07/27 06:42:53;;;;;;;4.45;1.38;;;;;;;14.90;67.53;99149.31;5059470;28;20029;-76
2022/07/27 06:45:18;;;;;;;5.50;1.45;;;;;;;15.51;67.35;99151.97;5061042;28;20306;-79
2022/07/27 06:47:44;;;;;;;4.38;1.42;;;;;;;17.02;63.49;99156.56;5058772;28;20028;-77
2022/07/27 06:50:10;;;;;;;4.88;1.60;;;;;;;16.87;62.72;99156.69;5076393;28;20055;-78
2022/07/27 06:52:35;;;;;;;2.65;1.52;;;;;;;16.47;64.44;99157.75;5064631;28;20343;-79
2022/07/27 06:55:01;;;;;;;2.42;1.33;;;;;;;17.52;62.32;99147.22;5056713;28;20035;-77
2022/07/27 06:57:26;;;;;;;2.83;1.23;;;;;;;17.53;61.88;99138.84;5045942;28;20119;-78
2022/07/27 06:59:52;;;;;;;3.97;1.05;;;;;;;17.31;61.28;99135.00;5053433;28;20044;-78
2022/07/27 07:02:18;;;;;;;5.43;1.40;;;;;;;16.73;60.34;99144.97;5047212;28;20107;-77
2022/07/27 07:04:44;;;;;;;2.10;0.95;;;;;;;17.13;60.95;99153.50;5063140;28;20024;-78
2022/07/27 07:07:10;;;;;;;7.30;1.30;;;;;;;17.13;61.13;99148.13;5063045;28;20103;-77
2022/07/27 07:09:35;;;;;;;4.03;1.25;;;;;;;17.05;60.84;99147.94;5063976;28;20063;-77
2022/07/27 07:12:01;;;;;;;2.65;1.02;;;;;;;17.08;60.50;99150.84;5056569;28;20475;-77
2022/07/27 07:14:27;;;;;;;3.60;1.30;;;;;;;16.86;59.57;99131.63;5066111;28;20059;-78
2022/07/27 07:16:52;;;;;;;5.07;1.75;;;;;;;16.39;61.00;99147.56;5057860;28;20078;-77
2022/07/27 07:19:18;;;;;;;4.00;1.02;;;;;;;16.27;61.85;99142.50;5080453;28;20288;-77
2022/07/27 07:21:44;;;;;;;4.72;1.77;;;;;;;15.92;63.72;99140.00;5081079;28;20135;-79
2022/07/27 07:24:10;;;;;;;5.97;1.30;;;;;;;16.74;63.31;99135.75;5061666;28;20505;-80
2022/07/27 07:26:37;;;;;;;6.78;2.10;;;;;;;16.01;62.63;99154.47;5064285;28;20035;-79
2022/07/27 07:29:02;;;;;;;5.72;1.52;;;;;;;16.59;62.53;99149.34;5060817;28;21854;-79
2022/07/27 07:31:28;;;;;;;8.55;1.63;;;;;;;16.10;61.71;99147.44;5061935;28;20127;-79
2022/07/27 07:33:53;;;;;;;4.82;1.52;;;;;;;16.89;61.64;99143.72;5062255;28;20066;-80
2022/07/27 07:36:19;;;;;;;3.58;1.25;;;;;;;17.23;61.46;99156.09;5062418;28;20127;-80
2022/07/27 07:38:44;;;;;;;5.40;1.13;;;;;;;17.31;60.10;99143.91;5062705;28;20158;-79
2022/07/27 07:41:10;;;;;;;3.38;1.60;;;;;;;17.22;59.11;99146.41;5061382;28;20036;-80
2022/07/27 07:43:37;;;;;;;3.28;1.52;;;;;;;17.33;59.35;99160.63;5060176;28;20649;-79
2022/07/27 07:46:03;;;;;;;3.25;1.05;;;;;;;17.36;59.87;99132.25;5061585;28;20116;-79
2022/07/27 07:48:29;;;;;;;4.05;1.50;;;;;;;17.44;59.51;99158.63;5061775;28;20040;-79
2022/07/27 07:50:54;;;;;;;3.95;1.17;;;;;;;17.60;58.77;99155.53;5049406;28;20025;-79
2022/07/27 07:53:21;;;;;;;6.35;1.13;;;;;;;17.18;60.28;99145.38;5059116;28;20033;-79
2022/07/27 07:55:46;;;;;;;8.93;1.50;;;;;;;17.69;59.11;99153.00;5049904;28;20073;-79
2022/07/27 07:58:12;;;;;;;4.40;1.40;;;;;;;18.14;56.94;99148.94;5063693;28;20476;-80
2022/07/27 08:00:37;;;;;;;9.30;2.75;;;;;;;18.74;55.50;99139.97;5063953;28;20032;-79
2022/07/27 08:03:03;;;;;;;2.35;0.80;;;;;;;19.38;56.16;99139.19;5051597;28;20040;-79
2022/07/27 08:05:31;;;;;;;6.57;1.40;;;;;;;19.06;54.97;99129.19;5067817;28;20059;-79
2022/07/27 08:07:57;;;;;;;2.17;1.13;;;;;;;18.45;56.17;99132.06;5059701;28;20036;-80
2022/07/27 08:10:23;;;;;;;5.00;1.58;;;;;;;18.07;56.50;99138.47;5043386;28;20048;-79
2022/07/27 08:12:54;;;;;;;5.25;1.30;;;;;;;18.64;57.62;99134.72;5063616;28;20024;-80
2022/07/27 08:15:20;;;;;;;4.30;1.35;;;;;;;18.32;54.33;99130.03;5080791;28;20039;-80
2022/07/27 08:17:46;;;;;;;2.38;1.00;;;;;;;19.31;55.74;99131.44;5058457;28;20480;-80
2022/07/27 08:20:13;;;;;;;2.63;1.40;;;;;;;20.12;54.10;99140.72;5077559;28;20033;-80
2022/07/27 08:22:39;;;;;;;3.72;1.02;;;;;;;20.00;53.11;99122.28;5064289;28;20122;-80
2022/07/27 08:25:06;;;;;;;2.42;0.95;;;;;;;19.21;52.50;99137.03;5067428;28;20032;-79
2022/07/27 08:27:32;;;;;;;4.63;1.10;;;;;;;20.17;52.94;99144.13;5062814;28;20040;-80
2022/07/27 08:29:57;;;;;;;9.48;1.15;;;;;;;20.23;52.21;99130.47;5068483;28;20024;-80
2022/07/27 08:32:23;;;;;;;2.10;0.75;;;;;;;19.61;51.19;99129.31;5047107;28;20395;-80
2022/07/27 08:34:50;;;;;;;5.45;1.52;;;;;;;19.19;51.17;99141.16;5065515;28;21588;-80
2022/07/27 08:37:15;;;;;;;3.20;0.95;;;;;;;20.27;51.94;99142.34;5045971;28;20028;-79
2022/07/27 08:39:41;;;;;;;5.20;2.25;;;;;;;19.84;51.77;99126.41;5066504;28;20080;-80
2022/07/27 08:42:08;;;;;;;2.10;0.90;;;;;;;20.31;51.61;99146.84;5045324;28;20358;-81
2022/07/27 08:44:35;;;;;;;6.10;1.17;;;;;;;20.30;51.42;99134.41;5079026;28;20124;-80
2022/07/27 08:47:01;;;;;;;3.00;0.77;;;;;;;20.55;50.74;99141.94;5063307;28;20210;-79
2022/07/27 08:49:28;;;;;;;6.80;1.13;;;;;;;20.38;50.15;99139.09;5065577;28;20017;-78
2022/07/27 08:51:54;;;;;;;6.15;1.23;;;;;;;20.24;50.65;99132.91;5064985;28;20057;-80
2022/07/27 08:54:20;;;;;;;2.72;0.88;;;;;;;19.54;51.53;99154.06;5065987;28;20067;-80
2022/07/27 08:56:46;;;;;;;3.58;0.93;;;;;;;18.66;52.55;99144.16;5063387;28;20086;-79
2022/07/27 08:59:11;;;;;;;3.08;1.20;;;;;;;19.41;52.91;99136.72;5063082;28;20025;-79
2022/07/27 09:01:38;;;;;;;2.88;0.98;;;;;;;19.72;52.28;99136.94;5047680;28;20031;-79
2022/07/27 09:04:03;;;;;;;2.63;1.33;;;;;;;20.40;51.04;99139.59;5057762;28;20758;-80
2022/07/27 09:06:44;;;;;;;2.72;0.95;;;;;;;19.79;48.52;99134.63;5066352;28;20048;-79
2022/07/27 09:09:11;;;;;;;6.32;0.75;;;;;;;19.93;48.91;99131.91;5065162;28;20028;-79
2022/07/27 09:11:37;;;;;;;2.60;0.93;;;;;;;19.67;50.75;99125.38;5049452;28;20039;-79
2022/07/27 09:14:07;;;;;;;1.17;0.75;;;;;;;20.73;49.60;99146.41;5065557;28;20032;-80
2022/07/27 09:16:33;;;;;;;3.38;0.80;;;;;;;20.70;49.53;99147.06;5066534;28;20039;-79
2022/07/27 09:19:04;;;;;;;3.00;0.70;;;;;;;20.77;48.41;99133.84;5063396;28;20033;-80
2022/07/27 09:21:30;;;;;;;2.38;0.85;;;;;;;20.86;48.88;99142.84;5049471;28;20052;-80
2022/07/27 09:24:07;;;;;;;4.47;1.00;;;;;;;20.79;48.58;99126.19;5069129;28;20396;-79
2022/07/27 09:26:33;;;;;;;2.72;0.93;;;;;;;20.82;49.08;99149.19;5064339;28;20404;-79
2022/07/27 09:29:07;;;;;;;2.38;0.70;;;;;;;20.86;48.59;99145.56;5048544;28;20029;-80
2022/07/27 09:31:40;;;;;;;0.65;0.60;;;;;;;20.96;48.58;99128.25;5064519;28;20154;-80
2022/07/27 09:34:06;;;;;;;1.65;1.10;;;;;;;20.79;48.85;99136.25;5065297;28;20073;-80
2022/07/27 09:36:31;;;;;;;2.15;0.95;;;;;;;20.81;48.41;99118.56;5065908;28;20518;-79
2022/07/27 09:39:07;;;;;;;1.80;0.75;;;;;;;20.57;48.34;99131.63;5064461;28;20025;-80
2022/07/27 09:41:53;;;;;;;2.58;1.38;;;;;;;20.39;48.34;99135.28;5058204;28;20116;-79
2022/07/27 09:44:39;;;;;;;2.35;1.10;;;;;;;20.31;48.97;99137.91;5044205;28;20040;-80
2022/07/27 09:47:27;;;;;;;;;;;;;;;20.89;48.94;99139.53;5062097;28;20074;-80
2022/07/27 09:50:14;;;;;;;5.63;0.73;;;;;;;21.03;48.70;99123.22;5061279;28;20372;-80
2022/07/27 09:52:39;;;;;;;1.13;0.80;;;;;;;20.50;48.09;99133.94;5045491;28;20424;-79
2022/07/27 09:55:05;;;;;;;2.45;0.93;;;;;;;20.91;48.02;99129.16;5066300;28;21809;-80
2022/07/27 09:57:50;;;;;;;1.80;1.02;;;;;;;20.78;48.05;99112.94;5063905;28;20059;-79
2022/07/27 10:00:16;;;;;;;4.40;0.98;;;;;;;20.84;47.99;99131.50;5076470;28;20484;-80
2022/07/27 10:02:42;;;;;;;1.40;0.60;;;;;;;21.35;47.88;99122.09;5057719;28;20464;-80
2022/07/27 10:05:08;;;;;;;4.97;1.08;;;;;;;21.09;48.10;99118.44;5064030;28;20667;-79
2022/07/27 10:07:34;;;;;;;1.73;0.90;;;;;;;21.30;47.80;99117.59;5063287;28;20105;-80
2022/07/27 10:10:01;;;;;;;3.85;0.82;;;;;;;21.38;47.94;99105.97;5057360;28;20082;-80
2022/07/27 10:12:30;;;;;;;2.53;0.75;;;;;;;21.01;48.14;99125.41;5080018;28;20036;-80
2022/07/27 10:14:56;;;;;;;0.82;0.80;;;;;;;21.20;47.48;99108.94;5062059;28;20051;-80
2022/07/27 10:17:23;;;;;;;2.47;1.08;;;;;;;21.27;47.48;99101.16;5075390;28;20041;-80
2022/07/27 10:19:51;;;;;;;6.22;0.80;;;;;;;21.27;47.15;99109.28;5061954;28;20469;-80
2022/07/27 10:22:54;;;;;;;3.42;0.85;;;;;;;21.27;47.22;99128.31;5057662;28;20069;-80
2022/07/27 10:25:24;;;;;;;2.60;0.90;;;;;;;21.49;47.11;99126.31;5059619;28;20028;-80
2022/07/27 10:28:10;;;;;;;1.90;1.13;;;;;;;20.92;45.82;99114.47;5061955;28;20357;-80
2022/07/27 10:30:36;;;;;;;2.67;1.08;;;;;;;21.13;46.99;99120.22;5067964;28;20036;-79
2022/07/27 10:33:15;;;;;;;3.38;0.70;;;;;;;21.05;44.97;99128.31;5071079;28;20442;-79
2022/07/27 10:35:41;;;;;;;5.85;1.05;;;;;;;21.34;46.42;99124.00;5082241;28;20572;-80
2022/07/27 10:38:16;;;;;;;4.63;1.30;;;;;;;21.50;46.50;99129.84;5065465;28;20086;-80
2022/07/27 10:40:43;;;;;;;1.25;1.00;;;;;;;21.19;46.10;99097.25;5060202;28;20114;-80
2022/07/27 10:43:19;;;;;;;0.82;0.73;;;;;;;20.08;46.11;99112.63;5066320;28;20099;-79
2022/07/27 10:45:50;;;;;;;3.60;1.00;;;;;;;20.99;46.50;99111.31;5067621;28;20129;-80
2022/07/27 10:48:36;;;;;;;5.88;0.98;;;;;;;21.48;45.91;99113.88;5063966;28;20067;-80
2022/07/27 10:51:26;;;;;;;2.80;0.80;;;;;;;21.15;46.45;99100.91;5064709;28;20028;-79
2022/07/27 10:53:52;;;;;;;3.20;1.25;;;;;;;21.70;46.09;99099.41;5055105;28;20037;-80
2022/07/27 10:56:45;;;;;;;2.88;0.88;;;;;;;21.42;46.81;99125.19;5065439;28;20389;-80
2022/07/27 10:59:10;;;;;;;2.65;0.82;;;;;;;21.67;45.52;99126.41;5062264;28;20245;-80
2022/07/27 11:01:54;;;;;;;1.60;0.73;;;;;;;21.50;45.84;99108.91;5045739;28;20031;-80
2022/07/27 11:04:20;;;;;;;1.67;0.90;;;;;;;21.89;45.23;99108.13;5064749;28;20502;-80
2022/07/27 11:06:45;;;;;;;2.05;0.85;;;;;;;22.03;45.16;99129.75;5048723;28;20585;-80
2022/07/27 11:09:11;;;;;;;1.48;0.88;;;;;;;22.17;44.61;99114.13;5067097;28;20032;-81
2022/07/27 11:11:37;;;;;;;7.32;1.13;;;;;;;22.47;43.55;99128.69;5059945;28;20171;-80
2022/07/27 11:14:03;;;;;;;2.38;0.95;;;;;;;22.88;43.34;99123.59;5067038;28;20032;-80
2022/07/27 11:16:29;;;;;;;2.65;1.48;;;;;;;22.91;42.27;99103.91;5065613;28;20036;-80
2022/07/27 11:19:04;;;;;;;0.95;0.60;;;;;;;22.47;42.63;99112.38;5067687;28;20032;-80
2022/07/27 11:21:34;;;;;;;2.05;0.60;;;;;;;23.28;41.81;99105.91;5067775;28;20032;-80
2022/07/27 11:24:11;;;;;;;4.75;1.42;;;;;;;22.38;43.49;99121.34;5049251;28;20091;-80
2022/07/27 11:26:40;;;;;;;1.27;1.10;;;;;;;22.43;44.43;99127.75;5051598;28;20070;-80
2022/07/27 11:29:07;;;;;;;1.70;0.93;;;;;;;22.69;43.21;99131.31;5043973;28;20032;-80
2022/07/27 11:31:35;;;;;;;2.95;1.10;;;;;;;22.93;42.88;99121.50;5051024;28;20408;-80
2022/07/27 11:34:00;;;;;;;3.28;1.10;;;;;;;22.57;43.67;99120.22;5066771;28;20067;-81
2022/07/27 11:36:38;;;;;;;4.32;1.20;;;;;;;21.47;45.48;99117.69;5063066;28;20662;-80
2022/07/27 11:39:06;;;;;;;1.35;0.73;;;;;;;21.78;45.50;99123.09;5051236;28;20036;-80